sensor_id;sensor_type;location;lat;lon;timestamp;pressure;altitude;pressure_sealevel;temperature;humidity
33697;BME280;20031;43.416;23.232;2022-11-15T00:01:21;100889.44;;;8.53;93.28
33697;BME280;20031;43.416;23.232;2022-11-15T00:03:50;100888.59;;;8.52;93.29
33697;BME280;20031;43.416;23.232;2022-11-15T00:06:16;100885.06;;;8.53;92.84
33697;BME280;20031;43.416;23.232;2022-11-15T00:08:41;100883.53;;;8.51;93.30
33697;BME280;20031;43.416;23.232;2022-11-15T00:11:10;100876.47;;;8.53;93.25
33697;BME280;20031;43.416;23.232;2022-11-15T00:13:36;100876.47;;;8.53;93.47
33697;BME280;20031;43.416;23.232;2022-11-15T00:16:01;100874.31;;;8.58;93.07
33697;BME280;20031;43.416;23.232;2022-11-15T00:18:28;100875.97;;;8.59;93.62
33697;BME280;20031;43.416;23.232;2022-11-15T00:20:55;100871.03;;;8.56;93.23
33697;BME280;20031;43.416;23.232;2022-11-15T00:23:20;100870.78;;;8.59;93.13
33697;BME280;20031;43.416;23.232;2022-11-15T00:25:46;100873.38;;;8.59;93.32
33697;BME280;20031;43.416;23.232;2022-11-15T00:28:12;100874.06;;;8.61;93.06
33697;BME280;20031;43.416;23.232;2022-11-15T00:30:37;100875.13;;;8.58;93.33
33697;BME280;20031;43.416;23.232;2022-11-15T00:33:06;100870.91;;;8.57;93.58
33697;BME280;20031;43.416;23.232;2022-11-15T00:35:33;100870.53;;;8.62;93.39
33697;BME280;20031;43.416;23.232;2022-11-15T00:37:59;100873.81;;;8.63;93.34
33697;BME280;20031;43.416;23.232;2022-11-15T00:40:25;100872.72;;;8.66;93.76
33697;BME280;20031;43.416;23.232;2022-11-15T00:42:50;100866.47;;;8.68;93.75
33697;BME280;20031;43.416;23.232;2022-11-15T00:45:16;100857.84;;;8.68;93.38
33697;BME280;20031;43.416;23.232;2022-11-15T00:47:44;100862.22;;;8.67;93.60
33697;BME280;20031;43.416;23.232;2022-11-15T00:50:10;100864.25;;;8.64;93.56
33697;BME280;20031;43.416;23.232;2022-11-15T00:52:35;100860.56;;;8.66;93.41
33697;BME280;20031;43.416;23.232;2022-11-15T00:55:01;100858.56;;;8.70;93.63
33697;BME280;20031;43.416;23.232;2022-11-15T00:57:26;100864.56;;;8.70;93.30
33697;BME280;20031;43.416;23.232;2022-11-15T00:59:52;100854.16;;;8.70;93.52
33697;BME280;20031;43.416;23.232;2022-11-15T01:02:17;100850.63;;;8.71;93.63
33697;BME280;20031;43.416;23.232;2022-11-15T01:04:43;100846.38;;;8.70;93.26
33697;BME280;20031;43.416;23.232;2022-11-15T01:07:08;100842.84;;;8.71;93.23
33697;BME280;20031;43.416;23.232;2022-11-15T01:09:34;100842.97;;;8.70;93.40
33697;BME280;20031;43.416;23.232;2022-11-15T01:11:59;100837.78;;;8.70;93.42
33697;BME280;20031;43.416;23.232;2022-11-15T01:14:25;100836.25;;;8.67;93.22
33697;BME280;20031;43.416;23.232;2022-11-15T01:16:50;100840.50;;;8.68;93.54
33697;BME280;20031;43.416;23.232;2022-11-15T01:19:16;100833.41;;;8.70;93.44
33697;BME280;20031;43.416;23.232;2022-11-15T01:21:41;100835.06;;;8.71;93.32
33697;BME280;20031;43.416;23.232;2022-11-15T01:24:08;100833.13;;;8.73;93.02
33697;BME280;20031;43.416;23.232;2022-11-15T01:26:36;100839.19;;;8.74;93.41
33697;BME280;20031;43.416;23.232;2022-11-15T01:29:02;100831.50;;;8.72;93.13
33697;BME280;20031;43.416;23.232;2022-11-15T01:31:27;100834.94;;;8.73;93.35
33697;BME280;20031;43.416;23.232;2022-11-15T01:33:53;100834.22;;;8.71;92.97
33697;BME280;20031;43.416;23.232;2022-11-15T01:36:20;100830.69;;;8.72;93.32
33697;BME280;20031;43.416;23.232;2022-11-15T01:38:53;100831.50;;;8.72;93.19
33697;BME280;20031;43.416;23.232;2022-11-15T01:41:29;100830.53;;;8.73;93.09
33697;BME280;20031;43.416;23.232;2022-11-15T01:43:57;100824.66;;;8.71;93.36
33697;BME280;20031;43.416;23.232;2022-11-15T01:46:41;100827.25;;;8.71;93.10
33697;BME280;20031;43.416;23.232;2022-11-15T01:49:18;100826.19;;;8.74;93.16
33697;BME280;20031;43.416;23.232;2022-11-15T01:51:44;100825.09;;;8.76;92.84
33697;BME280;20031;43.416;23.232;2022-11-15T01:54:16;100817.31;;;8.76;93.28
33697;BME280;20031;43.416;23.232;2022-11-15T01:57:03;100816.50;;;8.76;92.79
33697;BME280;20031;43.416;23.232;2022-11-15T01:59:32;100817.31;;;8.76;93.23
33697;BME280;20031;43.416;23.232;2022-11-15T02:01:58;100809.50;;;8.76;92.99
33697;BME280;20031;43.416;23.232;2022-11-15T02:04:45;100821.69;;;8.76;93.13
33697;BME280;20031;43.416;23.232;2022-11-15T02:07:13;100815.69;;;8.75;92.81
33697;BME280;20031;43.416;23.232;2022-11-15T02:09:39;100806.38;;;8.73;92.72
33697;BME280;20031;43.416;23.232;2022-11-15T02:12:07;100809.09;;;8.71;92.72
33697;BME280;20031;43.416;23.232;2022-11-15T02:14:34;100810.97;;;8.69;93.05
33697;BME280;20031;43.416;23.232;2022-11-15T02:20:36;100808.75;;;8.65;92.39
33697;BME280;20031;43.416;23.232;2022-11-15T02:25:41;100802.50;;;8.67;92.88
33697;BME280;20031;43.416;23.232;2022-11-15T02:31:34;100806.75;;;8.68;92.80
33697;BME280;20031;43.416;23.232;2022-11-15T02:34:16;100804.16;;;8.68;92.77
33697;BME280;20031;43.416;23.232;2022-11-15T02:37:03;100801.44;;;8.70;92.85
33697;BME280;20031;43.416;23.232;2022-11-15T02:42:14;100792.66;;;8.71;92.89
33697;BME280;20031;43.416;23.232;2022-11-15T02:45:04;100788.06;;;8.74;92.39
33697;BME280;20031;43.416;23.232;2022-11-15T02:47:35;100789.72;;;8.75;92.34
33697;BME280;20031;43.416;23.232;2022-11-15T02:50:10;100792.31;;;8.75;92.88
33697;BME280;20031;43.416;23.232;2022-11-15T02:52:37;100793.13;;;8.76;92.32
33697;BME280;20031;43.416;23.232;2022-11-15T02:55:03;100792.03;;;8.78;92.63
33697;BME280;20031;43.416;23.232;2022-11-15T02:57:51;100788.47;;;8.79;92.74
33697;BME280;20031;43.416;23.232;2022-11-15T03:00:19;100785.88;;;8.79;92.53
33697;BME280;20031;43.416;23.232;2022-11-15T03:03:13;100788.75;;;8.76;91.92
33697;BME280;20031;43.416;23.232;2022-11-15T03:11:37;100789.00;;;8.73;92.38
33697;BME280;20031;43.416;23.232;2022-11-15T03:16:57;100793.50;;;8.71;92.01
33697;BME280;20031;43.416;23.232;2022-11-15T03:22:09;100782.88;;;8.74;92.18
33697;BME280;20031;43.416;23.232;2022-11-15T03:24:37;100773.41;;;8.73;92.28
33697;BME280;20031;43.416;23.232;2022-11-15T03:27:05;100776.28;;;8.70;92.09
33697;BME280;20031;43.416;23.232;2022-11-15T03:29:41;100773.94;;;8.67;92.02
33697;BME280;20031;43.416;23.232;2022-11-15T03:32:15;100763.94;;;8.63;91.39
33697;BME280;20031;43.416;23.232;2022-11-15T03:34:49;100771.03;;;8.61;92.06
33697;BME280;20031;43.416;23.232;2022-11-15T03:37:17;100768.44;;;8.61;92.08
33697;BME280;20031;43.416;23.232;2022-11-15T03:39:46;100762.56;;;8.59;91.34
33697;BME280;20031;43.416;23.232;2022-11-15T03:42:28;100757.50;;;8.58;91.43
33697;BME280;20031;43.416;23.232;2022-11-15T03:47:34;100741.78;;;8.59;91.71
33697;BME280;20031;43.416;23.232;2022-11-15T03:50:10;100735.53;;;8.62;91.36
33697;BME280;20031;43.416;23.232;2022-11-15T03:52:37;100735.66;;;8.60;91.36
33697;BME280;20031;43.416;23.232;2022-11-15T03:55:04;100732.22;;;8.60;91.19
33697;BME280;20031;43.416;23.232;2022-11-15T03:57:31;100739.19;;;8.59;91.46
33697;BME280;20031;43.416;23.232;2022-11-15T03:59:56;100734.94;;;8.58;91.53
33697;BME280;20031;43.416;23.232;2022-11-15T04:02:22;100735.78;;;8.59;91.67
33697;BME280;20031;43.416;23.232;2022-11-15T04:04:47;100737.53;;;8.58;91.52
33697;BME280;20031;43.416;23.232;2022-11-15T04:07:13;100730.59;;;8.59;90.97
33697;BME280;20031;43.416;23.232;2022-11-15T04:09:38;100727.88;;;8.60;91.32
33697;BME280;20031;43.416;23.232;2022-11-15T04:12:23;100728.94;;;8.58;91.16
33697;BME280;20031;43.416;23.232;2022-11-15T04:15:05;100731.53;;;8.58;91.05
33697;BME280;20031;43.416;23.232;2022-11-15T04:20:05;100731.97;;;8.63;91.53
33697;BME280;20031;43.416;23.232;2022-11-15T04:22:52;100725.13;;;8.62;91.25
33697;BME280;20031;43.416;23.232;2022-11-15T04:25:36;100717.34;;;8.62;90.90
33697;BME280;20031;43.416;23.232;2022-11-15T04:28:02;100718.16;;;8.62;90.97
33697;BME280;20031;43.416;23.232;2022-11-15T04:30:27;100716.63;;;8.60;91.12
33697;BME280;20031;43.416;23.232;2022-11-15T04:32:52;100716.63;;;8.60;90.70
33697;BME280;20031;43.416;23.232;2022-11-15T04:35:18;100715.81;;;8.59;90.75
33697;BME280;20031;43.416;23.232;2022-11-15T04:37:43;100714.03;;;8.60;91.28
33697;BME280;20031;43.416;23.232;2022-11-15T04:40:09;100720.88;;;8.61;90.57
33697;BME280;20031;43.416;23.232;2022-11-15T04:42:34;100723.47;;;8.61;91.13
33697;BME280;20031;43.416;23.232;2022-11-15T04:45:00;100716.91;;;8.57;90.42
33697;BME280;20031;43.416;23.232;2022-11-15T04:47:25;100717.88;;;8.56;90.50
33697;BME280;20031;43.416;23.232;2022-11-15T04:49:52;100715.63;;;8.51;90.94
33697;BME280;20031;43.416;23.232;2022-11-15T04:52:18;100720.97;;;8.50;90.56
33697;BME280;20031;43.416;23.232;2022-11-15T04:54:43;100714.28;;;8.47;90.80
33697;BME280;20031;43.416;23.232;2022-11-15T04:57:09;100714.16;;;8.49;90.79
33697;BME280;20031;43.416;23.232;2022-11-15T04:59:35;100713.75;;;8.53;90.80
33697;BME280;20031;43.416;23.232;2022-11-15T05:02:00;100708.16;;;8.58;90.92
33697;BME280;20031;43.416;23.232;2022-11-15T05:04:26;100710.50;;;8.61;91.12
33697;BME280;20031;43.416;23.232;2022-11-15T05:06:51;100707.91;;;8.61;90.75
33697;BME280;20031;43.416;23.232;2022-11-15T05:09:19;100704.63;;;8.59;90.42
33697;BME280;20031;43.416;23.232;2022-11-15T05:11:45;100707.34;;;8.57;90.35
33697;BME280;20031;43.416;23.232;2022-11-15T05:14:10;100703.91;;;8.57;90.71
33697;BME280;20031;43.416;23.232;2022-11-15T05:16:36;100704.88;;;8.56;90.55
33697;BME280;20031;43.416;23.232;2022-11-15T05:19:02;100697.78;;;8.58;91.00
33697;BME280;20031;43.416;23.232;2022-11-15T05:21:27;100706.50;;;8.57;90.99
33697;BME280;20031;43.416;23.232;2022-11-15T05:23:53;100704.88;;;8.56;90.87
33697;BME280;20031;43.416;23.232;2022-11-15T05:26:18;100699.84;;;8.54;90.81
33697;BME280;20031;43.416;23.232;2022-11-15T05:28:44;100706.78;;;8.54;91.09
33697;BME280;20031;43.416;23.232;2022-11-15T05:31:12;100702.78;;;8.50;91.14
33697;BME280;20031;43.416;23.232;2022-11-15T05:33:39;100698.56;;;8.49;90.48
33697;BME280;20031;43.416;23.232;2022-11-15T05:36:12;100709.38;;;8.54;91.29
33697;BME280;20031;43.416;23.232;2022-11-15T05:38:39;100697.22;;;8.54;90.95
33697;BME280;20031;43.416;23.232;2022-11-15T05:41:04;100701.31;;;8.57;90.63
33697;BME280;20031;43.416;23.232;2022-11-15T05:43:33;100701.31;;;8.57;90.79
33697;BME280;20031;43.416;23.232;2022-11-15T05:46:01;100710.63;;;8.59;91.10
33697;BME280;20031;43.416;23.232;2022-11-15T05:48:29;100706.25;;;8.60;90.91
33697;BME280;20031;43.416;23.232;2022-11-15T05:50:56;100705.19;;;8.62;91.32
33697;BME280;20031;43.416;23.232;2022-11-15T05:53:23;100707.50;;;8.65;90.80
33697;BME280;20031;43.416;23.232;2022-11-15T05:55:50;100711.06;;;8.64;91.13
33697;BME280;20031;43.416;23.232;2022-11-15T05:58:16;100720.50;;;8.65;91.16
33697;BME280;20031;43.416;23.232;2022-11-15T06:00:41;100717.91;;;8.65;91.10
33697;BME280;20031;43.416;23.232;2022-11-15T06:03:08;100715.03;;;8.68;91.03
33697;BME280;20031;43.416;23.232;2022-11-15T06:05:34;100716.69;;;8.69;90.99
33697;BME280;20031;43.416;23.232;2022-11-15T06:07:59;100714.78;;;8.71;90.91
33697;BME280;20031;43.416;23.232;2022-11-15T06:10:25;100705.34;;;8.70;91.03
33697;BME280;20031;43.416;23.232;2022-11-15T06:13:03;100711.38;;;8.70;90.96
33697;BME280;20031;43.416;23.232;2022-11-15T06:15:28;100709.56;;;8.71;91.01
33697;BME280;20031;43.416;23.232;2022-11-15T06:17:57;100715.34;;;8.74;90.94
33697;BME280;20031;43.416;23.232;2022-11-15T06:20:24;100712.63;;;8.76;91.18
33697;BME280;20031;43.416;23.232;2022-11-15T06:22:49;100707.28;;;8.77;91.02
33697;BME280;20031;43.416;23.232;2022-11-15T06:25:15;100702.78;;;8.79;90.74
33697;BME280;20031;43.416;23.232;2022-11-15T06:27:40;100711.28;;;8.81;91.19
33697;BME280;20031;43.416;23.232;2022-11-15T06:30:06;100708.81;;;8.80;90.97
33697;BME280;20031;43.416;23.232;2022-11-15T06:32:32;100712.22;;;8.80;90.96
33697;BME280;20031;43.416;23.232;2022-11-15T06:34:57;100707.47;;;8.85;90.74
33697;BME280;20031;43.416;23.232;2022-11-15T06:37:22;100703.09;;;8.86;90.54
33697;BME280;20031;43.416;23.232;2022-11-15T06:39:48;100700.63;;;8.84;90.45
33697;BME280;20031;43.416;23.232;2022-11-15T06:42:13;100700.50;;;8.86;90.98
33697;BME280;20031;43.416;23.232;2022-11-15T06:44:39;100705.56;;;8.87;90.77
33697;BME280;20031;43.416;23.232;2022-11-15T06:47:05;100702.53;;;8.82;90.67
33697;BME280;20031;43.416;23.232;2022-11-15T06:49:30;100698.72;;;8.86;90.68
33697;BME280;20031;43.416;23.232;2022-11-15T06:51:55;100701.75;;;8.91;90.39
33697;BME280;20031;43.416;23.232;2022-11-15T06:54:21;100696.97;;;8.96;90.75
33697;BME280;20031;43.416;23.232;2022-11-15T06:56:47;100702.28;;;8.95;90.39
33697;BME280;20031;43.416;23.232;2022-11-15T06:59:12;100706.41;;;8.97;90.49
33697;BME280;20031;43.416;23.232;2022-11-15T07:01:38;100700.94;;;9.00;90.10
33697;BME280;20031;43.416;23.232;2022-11-15T07:04:03;100702.31;;;9.04;90.31
33697;BME280;20031;43.416;23.232;2022-11-15T07:06:29;100692.59;;;9.06;89.93
33697;BME280;20031;43.416;23.232;2022-11-15T07:08:54;100691.66;;;9.07;89.86
33697;BME280;20031;43.416;23.232;2022-11-15T07:11:20;100688.13;;;9.08;89.85
33697;BME280;20031;43.416;23.232;2022-11-15T07:13:45;100688.94;;;9.09;89.88
33697;BME280;20031;43.416;23.232;2022-11-15T07:16:10;100688.78;;;9.10;90.01
33697;BME280;20031;43.416;23.232;2022-11-15T07:18:40;100685.94;;;9.13;89.85
33697;BME280;20031;43.416;23.232;2022-11-15T07:21:10;100688.97;;;9.18;89.30
33697;BME280;20031;43.416;23.232;2022-11-15T07:23:37;100691.28;;;9.21;89.54
33697;BME280;20031;43.416;23.232;2022-11-15T07:26:06;100683.22;;;9.24;89.27
33697;BME280;20031;43.416;23.232;2022-11-15T07:28:32;100692.91;;;9.22;89.51
33697;BME280;20031;43.416;23.232;2022-11-15T07:30:57;100692.66;;;9.25;89.22
33697;BME280;20031;43.416;23.232;2022-11-15T07:33:22;100691.28;;;9.30;89.38
33697;BME280;20031;43.416;23.232;2022-11-15T07:35:48;100691.84;;;9.34;89.38
33697;BME280;20031;43.416;23.232;2022-11-15T07:38:13;100683.78;;;9.37;88.98
33697;BME280;20031;43.416;23.232;2022-11-15T07:40:40;100685.44;;;9.38;88.65
33697;BME280;20031;43.416;23.232;2022-11-15T07:43:07;100687.06;;;9.39;88.85
33697;BME280;20031;43.416;23.232;2022-11-15T07:45:33;100678.03;;;9.43;88.44
33697;BME280;20031;43.416;23.232;2022-11-15T07:48:00;100682.69;;;9.49;88.65
33697;BME280;20031;43.416;23.232;2022-11-15T07:50:26;100680.34;;;9.46;87.82
33697;BME280;20031;43.416;23.232;2022-11-15T07:52:59;100682.16;;;9.45;87.76
33697;BME280;20031;43.416;23.232;2022-11-15T07:55:26;100678.97;;;9.42;87.61
33697;BME280;20031;43.416;23.232;2022-11-15T07:57:52;100683.25;;;9.33;87.02
33697;BME280;20031;43.416;23.232;2022-11-15T08:00:18;100679.81;;;9.33;87.20
33697;BME280;20031;43.416;23.232;2022-11-15T08:02:44;100673.94;;;9.31;86.91
33697;BME280;20031;43.416;23.232;2022-11-15T08:05:09;100671.88;;;9.34;86.50
33697;BME280;20031;43.416;23.232;2022-11-15T08:07:35;100676.50;;;9.40;86.61
33697;BME280;20031;43.416;23.232;2022-11-15T08:10:00;100674.47;;;9.44;86.17
33697;BME280;20031;43.416;23.232;2022-11-15T08:12:27;100671.72;;;9.36;85.40
33697;BME280;20031;43.416;23.232;2022-11-15T08:14:54;100671.72;;;9.36;84.53
33697;BME280;20031;43.416;23.232;2022-11-15T08:17:21;100673.25;;;9.38;84.41
33697;BME280;20031;43.416;23.232;2022-11-15T08:19:47;100668.19;;;9.37;83.71
33697;BME280;20031;43.416;23.232;2022-11-15T08:22:13;100659.44;;;9.38;84.06
33697;BME280;20031;43.416;23.232;2022-11-15T08:24:38;100655.59;;;9.42;83.46
33697;BME280;20031;43.416;23.232;2022-11-15T08:27:04;100661.34;;;9.45;83.72
33697;BME280;20031;43.416;23.232;2022-11-15T08:29:29;100659.16;;;9.50;83.50
33697;BME280;20031;43.416;23.232;2022-11-15T08:31:56;100656.41;;;9.52;83.17
33697;BME280;20031;43.416;23.232;2022-11-15T08:34:21;100659.41;;;9.47;83.06
33697;BME280;20031;43.416;23.232;2022-11-15T08:36:47;100654.38;;;9.36;82.19
33697;BME280;20031;43.416;23.232;2022-11-15T08:39:12;100651.22;;;9.42;82.40
33697;BME280;20031;43.416;23.232;2022-11-15T08:41:38;100655.59;;;9.42;82.29
33697;BME280;20031;43.416;23.232;2022-11-15T08:44:04;100647.53;;;9.45;82.10
33697;BME280;20031;43.416;23.232;2022-11-15T08:46:30;100643.00;;;9.47;81.98
33697;BME280;20031;43.416;23.232;2022-11-15T08:48:55;100637.00;;;9.46;82.42
33697;BME280;20031;43.416;23.232;2022-11-15T08:51:21;100635.88;;;9.49;82.01
33697;BME280;20031;43.416;23.232;2022-11-15T08:53:46;100632.06;;;9.53;82.06
33697;BME280;20031;43.416;23.232;2022-11-15T08:56:14;100635.22;;;9.56;82.45
33697;BME280;20031;43.416;23.232;2022-11-15T08:58:40;100634.53;;;9.45;81.54
33697;BME280;20031;43.416;23.232;2022-11-15T09:01:06;100634.94;;;9.31;81.05
33697;BME280;20031;43.416;23.232;2022-11-15T09:03:31;100635.63;;;9.23;82.10
33697;BME280;20031;43.416;23.232;2022-11-15T09:05:58;100636.03;;;9.28;81.95
33697;BME280;20031;43.416;23.232;2022-11-15T09:08:26;100636.47;;;9.33;82.25
33697;BME280;20031;43.416;23.232;2022-11-15T09:10:54;100631.78;;;9.37;82.35
33697;BME280;20031;43.416;23.232;2022-11-15T09:13:19;100629.88;;;9.39;82.11
33697;BME280;20031;43.416;23.232;2022-11-15T09:15:44;100623.19;;;9.36;81.70
33697;BME280;20031;43.416;23.232;2022-11-15T09:18:10;100620.59;;;9.36;82.19
33697;BME280;20031;43.416;23.232;2022-11-15T09:20:35;100613.31;;;9.40;81.87
33697;BME280;20031;43.416;23.232;2022-11-15T09:23:02;100610.06;;;9.38;81.72
33697;BME280;20031;43.416;23.232;2022-11-15T09:25:28;100603.88;;;9.39;82.29
33697;BME280;20031;43.416;23.232;2022-11-15T09:27:54;100598.69;;;9.39;82.05
33697;BME280;20031;43.416;23.232;2022-11-15T09:30:19;100591.84;;;9.38;81.93
33697;BME280;20031;43.416;23.232;2022-11-15T09:32:44;100597.19;;;9.36;81.77
33697;BME280;20031;43.416;23.232;2022-11-15T09:35:10;100590.22;;;9.37;82.17
33697;BME280;20031;43.416;23.232;2022-11-15T09:37:35;100587.59;;;9.37;82.43
33697;BME280;20031;43.416;23.232;2022-11-15T09:40:01;100587.47;;;9.29;81.34
33697;BME280;20031;43.416;23.232;2022-11-15T09:42:47;100582.81;;;9.23;81.73
33697;BME280;20031;43.416;23.232;2022-11-15T09:45:28;100579.00;;;9.36;82.15
33697;BME280;20031;43.416;23.232;2022-11-15T09:50:48;100583.50;;;9.44;81.89
33697;BME280;20031;43.416;23.232;2022-11-15T09:53:26;100572.00;;;9.46;82.24
33697;BME280;20031;43.416;23.232;2022-11-15T09:56:03;100571.59;;;9.51;81.62
33697;BME280;20031;43.416;23.232;2022-11-15T09:58:47;100560.38;;;9.41;80.95
33697;BME280;20031;43.416;23.232;2022-11-15T10:04:08;100562.81;;;9.52;81.86
33697;BME280;20031;43.416;23.232;2022-11-15T10:06:36;100558.69;;;9.59;81.74
33697;BME280;20031;43.416;23.232;2022-11-15T10:09:20;100559.53;;;9.59;81.69
33697;BME280;20031;43.416;23.232;2022-11-15T10:11:48;100552.97;;;9.55;81.19
33697;BME280;20031;43.416;23.232;2022-11-15T10:14:20;100546.69;;;9.58;81.49
33697;BME280;20031;43.416;23.232;2022-11-15T10:25:30;100540.69;;;9.48;81.17
33697;BME280;20031;43.416;23.232;2022-11-15T10:28:21;100543.94;;;9.50;80.58
33697;BME280;20031;43.416;23.232;2022-11-15T10:30:51;100536.81;;;9.52;81.37
33697;BME280;20031;43.416;23.232;2022-11-15T10:38:35;100522.72;;;9.54;81.53
33697;BME280;20031;43.416;23.232;2022-11-15T10:43:41;100509.28;;;9.68;81.61
33697;BME280;20031;43.416;23.232;2022-11-15T10:46:26;100505.16;;;9.65;80.93
33697;BME280;20031;43.416;23.232;2022-11-15T10:48:52;100500.13;;;9.64;81.11
33697;BME280;20031;43.416;23.232;2022-11-15T10:51:25;100503.41;;;9.66;80.44
33697;BME280;20031;43.416;23.232;2022-11-15T10:53:54;100503.81;;;9.62;80.97
33697;BME280;20031;43.416;23.232;2022-11-15T10:56:22;100496.13;;;9.69;81.03
33697;BME280;20031;43.416;23.232;2022-11-15T10:58:55;100495.84;;;9.72;81.09
33697;BME280;20031;43.416;23.232;2022-11-15T11:01:26;100486.94;;;9.75;81.02
33697;BME280;20031;43.416;23.232;2022-11-15T11:04:02;100488.03;;;9.72;80.76
33697;BME280;20031;43.416;23.232;2022-11-15T11:06:28;100485.16;;;9.75;80.30
33697;BME280;20031;43.416;23.232;2022-11-15T11:09:03;100486.41;;;9.71;80.33
33697;BME280;20031;43.416;23.232;2022-11-15T11:11:49;100478.75;;;9.70;80.42
33697;BME280;20031;43.416;23.232;2022-11-15T11:14:26;100481.78;;;9.65;80.38
33697;BME280;20031;43.416;23.232;2022-11-15T11:19:59;100470.56;;;9.56;81.13
33697;BME280;20031;43.416;23.232;2022-11-15T11:36:59;100446.34;;;9.65;81.34
33697;BME280;20031;43.416;23.232;2022-11-15T11:42:37;100448.06;;;9.73;80.71
33697;BME280;20031;43.416;23.232;2022-11-15T11:50:37;100436.84;;;9.73;80.46
33697;BME280;20031;43.416;23.232;2022-11-15T11:53:17;100440.44;;;9.63;80.00
33697;BME280;20031;43.416;23.232;2022-11-15T11:55:53;100440.59;;;9.61;80.69
33697;BME280;20031;43.416;23.232;2022-11-15T11:58:36;100430.63;;;9.57;80.38
33697;BME280;20031;43.416;23.232;2022-11-15T12:01:17;100429.13;;;9.54;80.53
33697;BME280;20031;43.416;23.232;2022-11-15T12:06:35;100423.19;;;9.62;80.41
33697;BME280;20031;43.416;23.232;2022-11-15T12:14:53;100413.00;;;9.51;80.65
33697;BME280;20031;43.416;23.232;2022-11-15T12:17:25;100401.47;;;9.53;80.67
33697;BME280;20031;43.416;23.232;2022-11-15T12:19:56;100405.72;;;9.54;80.62
33697;BME280;20031;43.416;23.232;2022-11-15T12:22:27;100399.44;;;9.57;80.62
33697;BME280;20031;43.416;23.232;2022-11-15T12:25:06;100397.34;;;9.60;80.32
33697;BME280;20031;43.416;23.232;2022-11-15T12:30:04;100400.78;;;9.61;80.32
33697;BME280;20031;43.416;23.232;2022-11-15T12:32:34;100399.13;;;9.60;80.64
33697;BME280;20031;43.416;23.232;2022-11-15T12:35:03;100406.78;;;9.61;80.19
33697;BME280;20031;43.416;23.232;2022-11-15T12:42:42;100393.69;;;9.53;80.40
33697;BME280;20031;43.416;23.232;2022-11-15T12:47:53;100399.22;;;9.41;80.39
33697;BME280;20031;43.416;23.232;2022-11-15T12:53:29;100398.00;;;9.35;80.24
33697;BME280;20031;43.416;23.232;2022-11-15T12:58:49;100388.69;;;9.42;80.82
33697;BME280;20031;43.416;23.232;2022-11-15T13:06:40;100385.00;;;9.45;80.54
33697;BME280;20031;43.416;23.232;2022-11-15T13:12:08;100375.97;;;9.39;80.56
33697;BME280;20031;43.416;23.232;2022-11-15T13:28:07;100356.81;;;9.40;80.32
33697;BME280;20031;43.416;23.232;2022-11-15T13:30:36;100359.53;;;9.39;79.66
33697;BME280;20031;43.416;23.232;2022-11-15T13:33:13;100368.88;;;9.32;79.57
33697;BME280;20031;43.416;23.232;2022-11-15T13:35:42;100354.41;;;9.29;79.80
33697;BME280;20031;43.416;23.232;2022-11-15T13:38:38;100358.47;;;9.32;79.97
33697;BME280;20031;43.416;23.232;2022-11-15T13:41:21;100359.47;;;9.31;80.06
33697;BME280;20031;43.416;23.232;2022-11-15T13:43:48;100352.91;;;9.27;80.04
33697;BME280;20031;43.416;23.232;2022-11-15T13:46:25;100357.19;;;9.18;79.52
33697;BME280;20031;43.416;23.232;2022-11-15T13:49:03;100350.25;;;9.10;79.54
33697;BME280;20031;43.416;23.232;2022-11-15T13:51:46;100345.03;;;9.10;80.40
33697;BME280;20031;43.416;23.232;2022-11-15T13:56:42;100342.19;;;9.03;80.50
33697;BME280;20031;43.416;23.232;2022-11-15T13:59:30;100355.16;;;9.03;80.40
33697;BME280;20031;43.416;23.232;2022-11-15T14:02:01;100346.56;;;9.03;80.63
33697;BME280;20031;43.416;23.232;2022-11-15T14:04:28;100350.66;;;9.05;81.00
33697;BME280;20031;43.416;23.232;2022-11-15T14:06:58;100341.66;;;9.00;80.97
33697;BME280;20031;43.416;23.232;2022-11-15T14:09:38;100337.72;;;8.86;81.13
33697;BME280;20031;43.416;23.232;2022-11-15T14:12:33;100335.56;;;8.82;81.37
33697;BME280;20031;43.416;23.232;2022-11-15T14:15:02;100327.22;;;8.78;81.65
33697;BME280;20031;43.416;23.232;2022-11-15T14:17:42;100324.63;;;8.78;82.05
33697;BME280;20031;43.416;23.232;2022-11-15T14:23:19;100320.91;;;8.81;82.87
33697;BME280;20031;43.416;23.232;2022-11-15T14:25:55;100323.41;;;8.82;83.04
33697;BME280;20031;43.416;23.232;2022-11-15T14:30:51;100315.72;;;8.81;82.84
33697;BME280;20031;43.416;23.232;2022-11-15T14:33:19;100319.16;;;8.81;83.00
33697;BME280;20031;43.416;23.232;2022-11-15T14:35:45;100312.59;;;8.77;82.87
33697;BME280;20031;43.416;23.232;2022-11-15T14:38:10;100307.56;;;8.76;82.85
33697;BME280;20031;43.416;23.232;2022-11-15T14:40:36;100304.97;;;8.76;83.10
33697;BME280;20031;43.416;23.232;2022-11-15T14:43:01;100304.31;;;8.64;83.00
33697;BME280;20031;43.416;23.232;2022-11-15T14:45:27;100302.66;;;8.63;83.22
33697;BME280;20031;43.416;23.232;2022-11-15T14:47:52;100298.16;;;8.65;83.53
33697;BME280;20031;43.416;23.232;2022-11-15T14:50:20;100296.50;;;8.64;83.52
33697;BME280;20031;43.416;23.232;2022-11-15T14:52:47;100291.31;;;8.64;83.43
33697;BME280;20031;43.416;23.232;2022-11-15T14:55:30;100287.50;;;8.68;83.62
33697;BME280;20031;43.416;23.232;2022-11-15T14:58:04;100287.06;;;8.73;83.53
33697;BME280;20031;43.416;23.232;2022-11-15T15:00:31;100283.66;;;8.72;83.80
33697;BME280;20031;43.416;23.232;2022-11-15T15:02:57;100269.03;;;8.71;83.37
33697;BME280;20031;43.416;23.232;2022-11-15T15:07:58;100253.97;;;8.75;83.46
33697;BME280;20031;43.416;23.232;2022-11-15T15:10:24;100259.31;;;8.73;83.52
33697;BME280;20031;43.416;23.232;2022-11-15T15:12:49;100255.28;;;8.62;83.08
33697;BME280;20031;43.416;23.232;2022-11-15T15:15:19;100251.84;;;8.61;83.57